Time;durP1;ratioP1;P1;durP2;ratioP2;P2;SDS_P1;SDS_P2;PMS_P1;PMS_P2;Temp;Humidity;BMP_temperature;BMP_pressure;BME280_temperature;BME280_humidity;BME280_pressure;Samples;Min_cycle;Max_cycle;Signal;HPM_P1;HPM_P2
2022/10/27 00:02:04;;;;;;;14.85;4.60;;;;;;;11.78;100.00;102083.16;5205500;28;20029;-74
2022/10/27 00:04:34;;;;;;;7.72;2.80;;;;;;;11.74;100.00;102073.69;5206015;28;20040;-75
2022/10/27 00:07:05;;;;;;;6.28;2.95;;;;;;;11.71;100.00;102080.22;5205098;28;20037;-74
2022/10/27 00:09:35;;;;;;;10.90;3.90;;;;;;;11.69;100.00;102079.47;5205959;28;20028;-75
2022/10/27 00:12:06;;;;;;;14.60;3.42;;;;;;;11.68;100.00;102075.94;5205586;28;20034;-75
2022/10/27 00:14:36;;;;;;;8.75;2.95;;;;;;;11.68;100.00;102080.47;5205334;28;20029;-75
2022/10/27 00:17:07;;;;;;;8.38;4.07;;;;;;;11.70;100.00;102077.66;5204909;28;20025;-75
2022/10/27 00:19:37;;;;;;;5.63;2.83;;;;;;;11.70;100.00;102078.53;5205489;28;20033;-75
2022/10/27 00:22:08;;;;;;;6.13;2.80;;;;;;;11.73;100.00;102082.75;5205299;28;20031;-75
2022/10/27 00:24:38;;;;;;;7.88;3.15;;;;;;;11.75;100.00;102083.47;5205520;28;20022;-76
2022/10/27 00:27:09;;;;;;;10.43;2.55;;;;;;;11.78;100.00;102085.84;5204410;28;20032;-76
2022/10/27 00:29:39;;;;;;;7.75;2.85;;;;;;;11.80;100.00;102087.41;5205164;28;20112;-75
2022/10/27 00:32:10;;;;;;;6.72;2.35;;;;;;;11.82;100.00;102084.59;5205178;28;20024;-75
2022/10/27 00:34:40;;;;;;;5.68;3.10;;;;;;;11.84;100.00;102083.44;5205289;28;20021;-75
2022/10/27 00:37:11;;;;;;;6.43;3.10;;;;;;;11.88;100.00;102094.78;5204819;28;20029;-75
2022/10/27 00:39:41;;;;;;;6.35;2.90;;;;;;;11.87;100.00;102093.09;5204601;28;20329;-75
2022/10/27 00:42:12;;;;;;;6.35;3.40;;;;;;;11.88;100.00;102092.09;5205202;28;20032;-75
2022/10/27 00:44:45;;;;;;;8.55;3.72;;;;;;;11.89;100.00;102096.47;5204891;28;20025;-75
2022/10/27 00:47:31;;;;;;;11.40;3.58;;;;;;;11.90;100.00;102092.81;5204546;28;20037;-75
2022/10/27 00:50:04;;;;;;;;;;;;;;;11.93;100.00;102101.41;5190960;28;20421;-75
2022/10/27 00:52:43;;;;;;;9.13;3.63;;;;;;;11.98;100.00;102094.75;5204797;28;19927;-75
2022/10/27 00:55:21;;;;;;;10.85;3.60;;;;;;;12.01;100.00;102098.03;5205171;28;20029;-75
2022/10/27 00:57:55;;;;;;;9.88;2.63;;;;;;;12.01;100.00;102095.31;5203476;28;20025;-75
2022/10/27 01:00:25;;;;;;;5.95;3.60;;;;;;;12.03;100.00;102101.41;5204522;28;20049;-75
2022/10/27 01:02:56;;;;;;;4.90;3.17;;;;;;;12.05;100.00;102101.25;5205202;28;20025;-76
2022/10/27 01:05:27;;;;;;;9.68;4.32;;;;;;;12.02;100.00;102099.72;5203720;28;20029;-76
2022/10/27 01:08:03;;;;;;;7.55;3.47;;;;;;;12.00;100.00;102101.72;5204182;28;20048;-75
2022/10/27 01:10:34;;;;;;;8.25;3.60;;;;;;;11.99;100.00;102093.75;5204726;28;20417;-75
2022/10/27 01:13:19;;;;;;;11.15;3.47;;;;;;;11.98;100.00;102092.91;5204915;28;20021;-76
2022/10/27 01:16:23;;;;;;;8.00;3.83;;;;;;;11.96;100.00;102100.28;5204892;28;20511;-75
2022/10/27 01:19:40;;;;;;;7.53;3.38;;;;;;;11.91;100.00;102105.25;5190933;28;20034;-75
2022/10/27 01:22:32;;;;;;;12.02;3.75;;;;;;;11.85;100.00;102100.47;5203655;28;20049;-76
2022/10/27 01:25:42;;;;;;;9.15;3.67;;;;;;;11.81;100.00;102101.72;5203962;28;20021;-75
2022/10/27 01:28:37;;;;;;;9.75;4.05;;;;;;;11.78;100.00;102101.97;5204128;28;20036;-76
2022/10/27 01:31:21;;;;;;;7.68;3.40;;;;;;;11.77;100.00;102108.34;5201521;28;20137;-76
2022/10/27 01:34:15;;;;;;;15.40;3.72;;;;;;;11.78;100.00;102107.34;5191911;28;20029;-76
2022/10/27 01:36:52;;;;;;;10.05;4.85;;;;;;;11.77;100.00;102109.19;5204739;28;20552;-76
2022/10/27 01:39:44;;;;;;;12.07;4.88;;;;;;;11.75;100.00;102108.50;5205180;28;20481;-76
2022/10/27 01:42:20;;;;;;;12.27;4.70;;;;;;;11.72;100.00;102100.72;5206646;28;20514;-76
2022/10/27 01:44:55;;;;;;;16.80;4.70;;;;;;;11.71;100.00;102100.88;5206379;28;20022;-76
2022/10/27 01:47:28;;;;;;;7.65;3.72;;;;;;;11.71;100.00;102101.72;5204501;28;20037;-76
2022/10/27 01:49:59;;;;;;;8.80;4.22;;;;;;;11.69;100.00;102098.31;5202976;28;20024;-76
2022/10/27 01:52:46;;;;;;;8.15;4.07;;;;;;;11.69;100.00;102098.31;5203798;28;20033;-77
2022/10/27 01:55:27;;;;;;;8.50;4.20;;;;;;;11.67;100.00;102097.59;5204172;28;20025;-76
2022/10/27 01:58:16;;;;;;;8.48;4.47;;;;;;;11.66;100.00;102088.69;5203398;28;20048;-75
2022/10/27 02:00:56;;;;;;;12.75;5.03;;;;;;;11.64;100.00;102084.44;5203408;28;20116;-75
2022/10/27 02:03:36;;;;;;;11.57;4.72;;;;;;;11.61;100.00;102079.38;5204032;28;20033;-76
2022/10/27 02:06:12;;;;;;;6.20;3.45;;;;;;;11.57;100.00;102078.81;5203653;28;20452;-76
2022/10/27 02:08:53;;;;;;;12.30;4.00;;;;;;;11.54;100.00;102081.75;5202275;28;20022;-75
2022/10/27 02:11:26;;;;;;;8.95;3.38;;;;;;;11.47;100.00;102075.28;5203743;28;20021;-76
2022/10/27 02:13:58;;;;;;;6.15;3.55;;;;;;;11.44;100.00;102070.16;5203729;28;20017;-76
2022/10/27 02:16:33;;;;;;;7.35;3.67;;;;;;;11.48;100.00;102074.28;5203486;28;20026;-77
2022/10/27 02:19:23;;;;;;;11.25;3.90;;;;;;;11.49;100.00;102070.59;5203249;28;20017;-77
2022/10/27 02:21:58;;;;;;;8.98;4.30;;;;;;;11.50;100.00;102064.25;5203283;28;20112;-77
2022/10/27 02:24:30;;;;;;;10.48;4.15;;;;;;;11.50;100.00;102064.25;5203337;28;20392;-77
2022/10/27 02:27:07;;;;;;;9.23;3.85;;;;;;;11.52;100.00;102062.25;5202895;28;20014;-76
2022/10/27 02:29:42;;;;;;;7.95;3.70;;;;;;;11.51;100.00;102059.72;5203389;28;20451;-75
2022/10/27 02:32:19;;;;;;;8.68;3.72;;;;;;;11.55;100.00;102061.13;5200463;28;20025;-76
2022/10/27 02:34:50;;;;;;;13.27;3.88;;;;;;;11.56;100.00;102060.13;5204042;28;20029;-76
2022/10/27 02:37:29;;;;;;;12.32;3.90;;;;;;;11.61;100.00;102061.41;5203354;28;20048;-76
2022/10/27 02:39:59;;;;;;;8.25;3.22;;;;;;;11.66;100.00;102058.28;5203367;28;20029;-78
2022/10/27 02:42:30;;;;;;;6.05;3.33;;;;;;;11.67;100.00;102051.91;5202979;28;20502;-76
2022/10/27 02:45:00;;;;;;;9.60;3.42;;;;;;;11.70;100.00;102046.25;5203164;28;20064;-76
2022/10/27 02:47:31;;;;;;;11.65;4.00;;;;;;;11.76;100.00;102040.31;5189474;28;20107;-76
2022/10/27 02:50:01;;;;;;;9.95;3.38;;;;;;;11.80;100.00;102047.09;5195182;28;20018;-76
2022/10/27 02:52:32;;;;;;;10.23;3.17;;;;;;;11.81;100.00;102051.47;5184102;28;20018;-77
2022/10/27 02:55:03;;;;;;;13.85;3.00;;;;;;;11.82;100.00;102049.66;5191291;28;20041;-77
2022/10/27 02:57:33;;;;;;;13.30;3.35;;;;;;;11.85;100.00;102044.00;5187261;28;20496;-77
2022/10/27 03:00:05;;;;;;;8.52;3.47;;;;;;;11.86;100.00;102043.00;5183508;28;20448;-77
2022/10/27 03:02:35;;;;;;;9.95;3.35;;;;;;;11.92;100.00;102050.47;5196453;28;20103;-76
2022/10/27 03:05:06;;;;;;;6.30;2.95;;;;;;;11.91;100.00;102043.41;5184352;28;20037;-78
2022/10/27 03:07:36;;;;;;;9.05;3.30;;;;;;;11.90;100.00;102042.56;5184496;28;20300;-77
2022/10/27 03:10:07;;;;;;;8.75;3.70;;;;;;;11.93;100.00;102036.88;5184343;28;20101;-77
2022/10/27 03:12:38;;;;;;;12.32;3.22;;;;;;;11.93;100.00;102033.34;5195958;28;20038;-77
2022/10/27 03:15:09;;;;;;;9.95;3.35;;;;;;;11.87;100.00;102025.88;5185488;28;20022;-77
2022/10/27 03:17:46;;;;;;;7.72;3.08;;;;;;;11.79;100.00;102028.38;5190251;28;20026;-77
2022/10/27 03:20:17;;;;;;;9.07;3.60;;;;;;;11.75;100.00;102024.31;5190801;28;20052;-77
2022/10/27 03:22:47;;;;;;;9.05;3.38;;;;;;;11.70;100.00;102016.69;5187232;28;20508;-77
2022/10/27 03:25:18;;;;;;;8.80;3.20;;;;;;;11.71;100.00;102014.84;5197680;28;20025;-77
2022/10/27 03:27:49;;;;;;;15.90;3.78;;;;;;;11.65;100.00;102011.75;5206287;28;20105;-76
2022/10/27 03:30:19;;;;;;;11.95;4.00;;;;;;;11.70;100.00;102013.13;5205752;28;20013;-76
2022/10/27 03:32:51;;;;;;;10.10;3.08;;;;;;;11.76;100.00;102004.50;5203367;28;20021;-76
2022/10/27 03:35:21;;;;;;;6.43;2.95;;;;;;;11.76;100.00;102013.41;5206849;28;20492;-76
2022/10/27 03:37:56;;;;;;;8.40;3.03;;;;;;;11.78;100.00;102003.34;5205780;28;20022;-76
2022/10/27 03:40:28;;;;;;;9.43;2.80;;;;;;;11.82;100.00;102006.63;5206517;28;20029;-76
2022/10/27 03:42:58;;;;;;;10.20;2.78;;;;;;;11.82;100.00;102010.16;5206342;28;20029;-76
2022/10/27 03:45:29;;;;;;;8.05;3.00;;;;;;;11.82;100.00;102003.94;5206399;28;20027;-76
2022/10/27 03:48:01;;;;;;;12.68;2.92;;;;;;;11.83;100.00;102017.22;5205545;28;20558;-76
2022/10/27 03:50:32;;;;;;;9.00;3.17;;;;;;;11.85;100.00;102014.41;5206458;28;20025;-76
2022/10/27 03:53:04;;;;;;;12.43;3.08;;;;;;;11.81;100.00;102011.13;5206041;28;20057;-75
2022/10/27 03:55:35;;;;;;;6.03;2.50;;;;;;;11.79;100.00;102018.47;5206501;28;20603;-76
2022/10/27 03:58:06;;;;;;;4.53;2.42;;;;;;;11.79;100.00;102021.16;5205842;28;20033;-76
2022/10/27 04:00:36;;;;;;;11.10;3.05;;;;;;;11.74;100.00;102030.66;5206048;28;20464;-75
2022/10/27 04:03:07;;;;;;;16.33;3.63;;;;;;;11.73;100.00;102023.59;5206271;28;20111;-75
2022/10/27 04:05:37;;;;;;;7.35;2.85;;;;;;;11.73;100.00;102029.81;5205613;28;20397;-75
2022/10/27 04:08:08;;;;;;;7.22;3.17;;;;;;;11.67;100.00;102033.94;5205857;28;20025;-75
2022/10/27 04:10:38;;;;;;;12.13;2.85;;;;;;;11.58;100.00;102033.97;5205888;28;20063;-76
2022/10/27 04:13:09;;;;;;;9.65;3.13;;;;;;;11.54;100.00;102028.00;5205971;28;20025;-76
2022/10/27 04:15:39;;;;;;;6.30;2.33;;;;;;;11.45;100.00;102033.44;5205698;28;20017;-75
2022/10/27 04:18:10;;;;;;;6.60;2.75;;;;;;;11.37;100.00;102029.59;5204899;28;20041;-76
2022/10/27 04:20:41;;;;;;;15.50;3.50;;;;;;;11.27;100.00;102030.59;5205689;28;20026;-76
2022/10/27 04:23:11;;;;;;;13.27;3.85;;;;;;;11.25;100.00;102027.22;5193111;28;20374;-76
2022/10/27 04:25:43;;;;;;;7.88;3.33;;;;;;;11.23;100.00;102043.47;5199746;28;20021;-76
2022/10/27 04:28:14;;;;;;;9.93;3.20;;;;;;;11.20;100.00;102033.00;5205072;28;20100;-76
2022/10/27 04:30:44;;;;;;;8.55;3.40;;;;;;;11.20;100.00;102032.16;5205361;28;20104;-76
2022/10/27 04:33:15;;;;;;;7.93;2.80;;;;;;;11.20;100.00;102037.53;5201057;28;20503;-74
2022/10/27 04:35:45;;;;;;;8.40;3.13;;;;;;;11.25;100.00;102043.34;5205639;28;20148;-75
2022/10/27 04:38:16;;;;;;;7.68;2.92;;;;;;;11.30;100.00;102039.22;5204970;28;20185;-76
2022/10/27 04:40:46;;;;;;;7.82;3.10;;;;;;;11.34;100.00;102032.56;5205273;28;20427;-76
2022/10/27 04:43:17;;;;;;;5.72;2.85;;;;;;;11.37;100.00;102039.50;5205024;28;20053;-77
2022/10/27 04:45:47;;;;;;;6.95;2.75;;;;;;;11.35;100.00;102041.50;5204961;28;20018;-77
2022/10/27 04:48:18;;;;;;;5.15;2.83;;;;;;;11.41;100.00;102031.00;5204856;28;20036;-76
2022/10/27 04:50:48;;;;;;;8.45;2.65;;;;;;;11.47;100.00;102034.97;5205017;28;20018;-76
2022/10/27 04:53:18;;;;;;;6.93;2.28;;;;;;;11.46;100.00;102033.28;5205203;28;20075;-76
2022/10/27 04:55:51;;;;;;;10.07;2.90;;;;;;;11.47;100.00;102028.75;5204799;28;20048;-77
2022/10/27 04:58:21;;;;;;;8.32;2.55;;;;;;;11.46;100.00;102029.75;5204474;28;20077;-76
2022/10/27 05:00:52;;;;;;;6.90;2.60;;;;;;;11.47;100.00;102029.59;5204544;28;20025;-76
2022/10/27 05:03:22;;;;;;;6.25;2.42;;;;;;;11.48;100.00;102031.28;5205101;28;20049;-76
2022/10/27 05:05:53;;;;;;;7.90;2.20;;;;;;;11.55;100.00;102029.72;5204851;28;20031;-76
2022/10/27 05:08:23;;;;;;;10.18;3.28;;;;;;;11.64;100.00;102039.59;5204137;28;20428;-77
2022/10/27 05:10:54;;;;;;;7.18;2.58;;;;;;;11.71;100.00;102037.19;5205336;28;20377;-75
2022/10/27 05:13:24;;;;;;;8.63;2.97;;;;;;;11.70;100.00;102040.00;5204821;28;20103;-76
2022/10/27 05:15:59;;;;;;;5.93;2.95;;;;;;;11.70;100.00;102034.63;5205070;28;20021;-77
2022/10/27 05:18:30;;;;;;;12.45;3.13;;;;;;;11.69;100.00;102028.41;5203860;28;20104;-76
2022/10/27 05:21:00;;;;;;;7.63;3.08;;;;;;;11.68;100.00;102032.09;5204363;28;20572;-74
2022/10/27 05:23:31;;;;;;;10.30;3.00;;;;;;;11.61;100.00;102026.47;5204409;28;20037;-74
2022/10/27 05:26:02;;;;;;;5.05;2.00;;;;;;;11.55;100.00;102018.97;5204200;28;20053;-73
2022/10/27 05:28:32;;;;;;;11.57;2.88;;;;;;;11.49;100.00;102021.38;5203794;28;20025;-74
2022/10/27 05:31:03;;;;;;;9.30;2.30;;;;;;;11.51;100.00;102022.09;5201949;28;20016;-74
2022/10/27 05:33:33;;;;;;;5.50;2.50;;;;;;;11.47;100.00;102024.22;5202814;28;20035;-74
2022/10/27 05:36:04;;;;;;;6.97;2.45;;;;;;;11.49;100.00;102016.00;5204467;28;20412;-74
2022/10/27 05:38:36;;;;;;;4.82;2.80;;;;;;;11.48;100.00;102020.53;5203654;28;20065;-76
2022/10/27 05:41:07;;;;;;;6.15;2.35;;;;;;;11.48;100.00;102014.31;5204048;28;20057;-76
2022/10/27 05:43:38;;;;;;;11.35;2.85;;;;;;;11.51;100.00;102005.97;5203577;28;20060;-76
2022/10/27 05:46:08;;;;;;;16.63;2.90;;;;;;;11.53;100.00;102002.13;5204452;28;20042;-77
2022/10/27 05:48:39;;;;;;;7.18;2.45;;;;;;;11.54;100.00;102003.81;5203664;28;20033;-74
2022/10/27 05:51:09;;;;;;;7.30;2.45;;;;;;;11.56;100.00;101995.63;5205570;28;20022;-77
2022/10/27 05:53:40;;;;;;;7.43;2.58;;;;;;;11.55;100.00;101992.09;5205417;28;20021;-76
2022/10/27 05:56:10;;;;;;;5.60;2.40;;;;;;;11.53;100.00;102001.28;5203687;28;20473;-74
2022/10/27 05:58:41;;;;;;;8.88;2.42;;;;;;;11.55;100.00;101996.63;5203290;28;20025;-74
2022/10/27 06:01:11;;;;;;;8.52;2.70;;;;;;;11.56;100.00;101995.63;5203706;28;20163;-73
2022/10/27 06:03:42;;;;;;;7.22;2.90;;;;;;;11.53;100.00;102002.13;5203923;28;20113;-72
2022/10/27 06:06:12;;;;;;;9.85;2.90;;;;;;;11.55;100.00;101992.09;5203740;28;20095;-72
2022/10/27 06:08:43;;;;;;;7.65;2.35;;;;;;;11.53;100.00;101988.69;5202743;28;20112;-72
2022/10/27 06:11:13;;;;;;;13.50;3.00;;;;;;;11.55;100.00;101994.78;5203487;28;20013;-72
2022/10/27 06:13:44;;;;;;;8.75;2.70;;;;;;;11.59;100.00;101990.81;5203341;28;20520;-72
2022/10/27 06:16:14;;;;;;;4.97;2.40;;;;;;;11.67;100.00;101990.94;5203670;28;20025;-72
2022/10/27 06:18:45;;;;;;;5.03;2.22;;;;;;;11.67;100.00;101985.56;5203108;28;20053;-72
2022/10/27 06:21:15;;;;;;;14.02;2.30;;;;;;;11.73;100.00;101992.19;5202046;28;20467;-72
2022/10/27 06:23:49;;;;;;;4.00;2.15;;;;;;;11.74;100.00;101976.91;5203440;28;20488;-73
2022/10/27 06:26:20;;;;;;;6.95;1.70;;;;;;;11.75;100.00;101976.78;5203000;28;20040;-72
2022/10/27 06:28:51;;;;;;;7.28;2.40;;;;;;;11.78;100.00;101984.53;5202677;28;20029;-72
2022/10/27 06:31:21;;;;;;;4.95;2.15;;;;;;;11.86;100.00;101983.84;5192953;28;20026;-73
2022/10/27 06:33:51;;;;;;;11.85;1.95;;;;;;;12.02;100.00;101983.22;5183245;28;20370;-73
2022/10/27 06:36:22;;;;;;;4.30;1.70;;;;;;;12.11;100.00;101980.47;5196050;28;20475;-73
2022/10/27 06:38:53;;;;;;;7.68;1.83;;;;;;;12.14;100.00;101979.31;5200336;28;20563;-73
2022/10/27 06:41:23;;;;;;;6.15;2.08;;;;;;;12.22;100.00;101971.38;5201149;28;20021;-72
2022/10/27 06:43:54;;;;;;;4.65;1.40;;;;;;;12.29;100.00;101959.00;5201593;28;20024;-73
2022/10/27 06:46:24;;;;;;;8.25;1.65;;;;;;;12.38;100.00;101954.56;5200816;28;20461;-73
2022/10/27 06:48:55;;;;;;;5.45;1.45;;;;;;;12.45;100.00;101966.44;5201118;28;20022;-73
2022/10/27 06:51:25;;;;;;;3.92;1.33;;;;;;;12.52;100.00;101959.44;5186910;28;20104;-73
2022/10/27 06:53:56;;;;;;;4.50;1.25;;;;;;;12.60;100.00;101964.91;5188828;28;20424;-73
2022/10/27 06:56:26;;;;;;;2.60;1.23;;;;;;;12.75;100.00;101972.44;5190305;28;20035;-73
2022/10/27 06:58:57;;;;;;;6.60;1.13;;;;;;;12.87;100.00;101979.31;5184536;28;20539;-73
2022/10/27 07:01:27;;;;;;;3.53;1.20;;;;;;;13.07;100.00;101967.38;5189792;28;20022;-73
2022/10/27 07:03:58;;;;;;;1.80;1.00;;;;;;;13.23;100.00;101973.91;5186649;28;20029;-73
2022/10/27 07:06:28;;;;;;;2.72;0.90;;;;;;;13.39;100.00;101980.28;5195249;28;20427;-73
2022/10/27 07:08:59;;;;;;;4.20;0.93;;;;;;;13.59;100.00;101972.84;5187316;28;20021;-73
2022/10/27 07:11:29;;;;;;;3.20;1.10;;;;;;;13.69;100.00;101972.72;5186615;28;20263;-73
2022/10/27 07:14:00;;;;;;;1.65;1.20;;;;;;;13.81;100.00;101960.69;5186713;28;20026;-73
2022/10/27 07:16:30;;;;;;;11.40;1.30;;;;;;;13.98;100.00;101964.28;5188828;28;20021;-73
2022/10/27 07:19:01;;;;;;;4.78;1.13;;;;;;;14.15;100.00;101959.81;5183498;28;20082;-73
2022/10/27 07:21:32;;;;;;;3.25;1.20;;;;;;;14.28;100.00;101962.91;5179398;28;20053;-73
2022/10/27 07:24:02;;;;;;;2.95;1.00;;;;;;;14.38;100.00;101971.69;5183200;28;20101;-73
2022/10/27 07:26:33;;;;;;;6.05;1.10;;;;;;;14.48;100.00;101967.03;5182343;28;20029;-73
2022/10/27 07:29:03;;;;;;;3.42;1.02;;;;;;;14.56;100.00;101981.56;5184424;28;20040;-73
2022/10/27 07:31:33;;;;;;;2.42;0.90;;;;;;;14.71;100.00;101975.38;5187408;28;20022;-73
2022/10/27 07:34:04;;;;;;;8.43;1.88;;;;;;;14.94;100.00;101972.00;5185960;28;20076;-73
2022/10/27 07:36:34;;;;;;;3.60;1.63;;;;;;;15.20;100.00;101972.69;5187477;28;20099;-73
2022/10/27 07:39:06;;;;;;;4.90;1.42;;;;;;;15.42;100.00;101973.88;5182627;28;20587;-73
2022/10/27 07:41:36;;;;;;;6.70;1.17;;;;;;;15.62;100.00;101974.34;5186959;28;20253;-73
2022/10/27 07:44:07;;;;;;;3.63;1.30;;;;;;;15.75;100.00;101971.97;5187431;28;20029;-73
2022/10/27 07:46:37;;;;;;;3.90;1.13;;;;;;;15.84;100.00;101967.41;5185656;28;20437;-73
2022/10/27 07:49:08;;;;;;;4.00;1.25;;;;;;;15.88;100.00;101965.19;5188169;28;20033;-73
2022/10/27 07:51:38;;;;;;;4.25;1.55;;;;;;;16.18;100.00;101969.81;5183473;28;20373;-73
2022/10/27 07:54:09;;;;;;;3.25;1.10;;;;;;;16.65;100.00;101965.31;5191019;28;20389;-76
2022/10/27 07:56:39;;;;;;;4.70;1.17;;;;;;;17.26;100.00;101968.94;5195315;28;20079;-73
2022/10/27 07:59:10;;;;;;;2.97;1.10;;;;;;;17.64;100.00;101964.34;5194145;28;20017;-73
2022/10/27 08:01:40;;;;;;;11.88;1.20;;;;;;;17.75;100.00;101968.50;5183660;28;20025;-73
2022/10/27 08:04:11;;;;;;;2.83;1.08;;;;;;;17.99;100.00;101959.25;5181675;28;20046;-73
2022/10/27 08:06:41;;;;;;;2.45;1.00;;;;;;;18.13;100.00;101961.13;5181078;28;20670;-73
2022/10/27 08:09:12;;;;;;;6.18;1.10;;;;;;;18.04;100.00;101951.38;5188645;28;20447;-73
2022/10/27 08:11:42;;;;;;;2.25;0.90;;;;;;;17.95;100.00;101941.66;5186847;28;20075;-73
2022/10/27 08:14:13;;;;;;;3.67;1.20;;;;;;;17.85;100.00;101934.63;5190863;28;20049;-73
2022/10/27 08:16:43;;;;;;;3.22;1.40;;;;;;;17.85;100.00;101947.38;5185210;28;20025;-73
2022/10/27 08:19:15;;;;;;;4.13;0.90;;;;;;;17.92;100.00;101942.84;5188234;28;20018;-73
2022/10/27 08:21:46;;;;;;;7.43;1.30;;;;;;;17.70;100.00;101941.91;5182577;28;20117;-73
2022/10/27 08:24:17;;;;;;;4.32;1.13;;;;;;;17.67;100.00;101936.88;5196627;28;20032;-73
2022/10/27 08:26:47;;;;;;;2.92;1.00;;;;;;;17.67;100.00;101941.41;5189583;28;20485;-73
2022/10/27 08:29:18;;;;;;;2.92;1.00;;;;;;;17.60;100.00;101947.59;5184947;28;20416;-73
2022/10/27 08:31:48;;;;;;;4.03;1.00;;;;;;;17.66;100.00;101950.59;5191463;28;20534;-73
2022/10/27 08:34:19;;;;;;;3.95;1.25;;;;;;;17.67;100.00;101945.00;5188778;28;20377;-73
2022/10/27 08:36:49;;;;;;;8.15;1.23;;;;;;;17.68;100.00;101952.09;5184680;28;20400;-73
2022/10/27 08:39:20;;;;;;;5.68;1.60;;;;;;;17.75;100.00;101954.94;5186269;28;20025;-73
2022/10/27 08:41:50;;;;;;;6.00;1.60;;;;;;;17.76;100.00;101946.59;5186269;28;20401;-73
2022/10/27 08:44:28;;;;;;;9.23;1.20;;;;;;;17.95;100.00;101950.63;5190146;28;20025;-73
2022/10/27 08:47:04;;;;;;;9.23;1.55;;;;;;;18.23;100.00;101941.81;5187232;28;20057;-73
2022/10/27 08:49:45;;;;;;;4.45;0.90;;;;;;;18.35;100.00;101938.41;5186195;28;20106;-73
2022/10/27 08:52:49;;;;;;;4.13;0.82;;;;;;;18.54;100.00;101934.22;5187973;28;20037;-73
2022/10/27 08:55:24;;;;;;;1.88;0.95;;;;;;;18.52;100.00;101922.69;5185653;28;20025;-73
2022/10/27 08:58:22;;;;;;;6.45;1.25;;;;;;;18.34;100.00;101916.88;5193676;28;20101;-73
2022/10/27 09:01:04;;;;;;;5.10;1.33;;;;;;;18.25;100.00;101907.97;5188147;28;20030;-74
2022/10/27 09:04:12;;;;;;;9.18;1.83;;;;;;;18.60;100.00;101908.16;5193318;28;20021;-73
2022/10/27 09:07:19;;;;;;;4.95;1.27;;;;;;;18.95;100.00;101901.00;5191471;28;20501;-73
2022/10/27 09:10:30;;;;;;;6.88;1.35;;;;;;;19.39;100.00;101898.00;5180331;28;20032;-73
2022/10/27 09:13:16;;;;;;;3.55;1.20;;;;;;;19.74;100.00;101903.47;5196923;28;20033;-73
2022/10/27 09:15:50;;;;;;;3.70;1.27;;;;;;;19.89;100.00;101904.16;5186977;28;20026;-73
2022/10/27 09:18:29;;;;;;;5.45;1.40;;;;;;;19.89;100.00;101906.06;5186650;28;20030;-74
2022/10/27 09:21:04;;;;;;;3.75;1.10;;;;;;;20.01;100.00;101911.75;5183929;28;20133;-73
2022/10/27 09:23:40;;;;;;;5.65;1.50;;;;;;;19.92;100.00;101916.53;5184633;28;20026;-73
2022/10/27 09:26:13;;;;;;;4.97;1.50;;;;;;;20.25;100.00;101913.94;5184499;28;20404;-73
2022/10/27 09:28:56;;;;;;;3.67;1.30;;;;;;;20.55;100.00;101908.19;5185648;28;20059;-74
2022/10/27 09:31:42;;;;;;;5.80;1.63;;;;;;;21.02;100.00;101890.81;5186991;28;20049;-73
2022/10/27 09:34:21;;;;;;;3.38;1.33;;;;;;;21.42;100.00;101883.47;5188292;28;20018;-74
2022/10/27 09:36:52;;;;;;;5.63;1.48;;;;;;;21.44;100.00;101878.66;5185070;28;21037;-74
2022/10/27 09:39:23;;;;;;;4.38;1.33;;;;;;;21.23;100.00;101884.28;5192790;28;20025;-74
2022/10/27 09:41:53;;;;;;;4.82;1.60;;;;;;;21.26;100.00;101878.44;5186117;28;20025;-74
2022/10/27 09:44:25;;;;;;;8.38;1.40;;;;;;;21.14;100.00;101875.50;5190180;28;20025;-74
2022/10/27 09:46:56;;;;;;;3.00;1.23;;;;;;;21.06;100.00;101880.34;5186233;28;20026;-74
2022/10/27 09:49:33;;;;;;;2.97;1.13;;;;;;;21.12;100.00;101883.06;5183036;28;20029;-74
2022/10/27 09:52:13;;;;;;;7.38;1.40;;;;;;;20.54;100.00;101869.19;5180110;28;20302;-74
2022/10/27 09:54:52;;;;;;;8.05;1.73;;;;;;;20.37;100.00;101857.78;5185244;28;20506;-74
2022/10/27 09:57:31;;;;;;;8.93;2.25;;;;;;;20.41;100.00;101864.53;5189620;28;20104;-74
2022/10/27 10:00:06;;;;;;;6.43;1.60;;;;;;;20.48;100.00;101866.44;5187575;28;20076;-74
2022/10/27 10:02:40;;;;;;;9.00;1.65;;;;;;;20.39;100.00;101869.34;5186549;28;20045;-74
2022/10/27 10:05:23;;;;;;;4.57;1.60;;;;;;;20.27;100.00;101870.13;5188579;28;20397;-74
2022/10/27 10:08:20;;;;;;;3.83;1.30;;;;;;;20.32;100.00;101865.75;5181395;28;20344;-73
2022/10/27 10:10:55;;;;;;;5.88;1.80;;;;;;;20.36;100.00;101866.19;5184607;28;20017;-74
2022/10/27 10:13:28;;;;;;;6.68;1.45;;;;;;;20.34;100.00;101868.28;5185078;28;20402;-73
2022/10/27 10:16:15;;;;;;;5.00;1.73;;;;;;;20.28;100.00;101863.63;5185163;28;20029;-73
2022/10/27 10:19:01;;;;;;;10.15;1.70;;;;;;;20.07;100.00;101854.56;5187037;28;20065;-73
2022/10/27 10:21:53;;;;;;;10.75;1.83;;;;;;;20.10;100.00;101839.72;5181224;28;20034;-73
2022/10/27 10:24:27;;;;;;;3.90;1.98;;;;;;;20.10;100.00;101845.16;5187235;28;20025;-74
2022/10/27 10:27:00;;;;;;;6.63;1.45;;;;;;;20.00;100.00;101844.72;5179258;28;20038;-74
2022/10/27 10:29:39;;;;;;;2.88;1.70;;;;;;;20.02;100.00;101856.22;5182493;28;20037;-73
2022/10/27 10:32:18;;;;;;;7.00;2.05;;;;;;;20.13;100.00;101864.69;5187374;28;20049;-73
2022/10/27 10:34:52;;;;;;;11.57;2.50;;;;;;;20.15;100.00;101859.00;5184406;28;20028;-74
2022/10/27 10:37:33;;;;;;;9.05;2.03;;;;;;;20.12;100.00;101854.78;5178548;28;20542;-73
2022/10/27 10:40:13;;;;;;;9.45;3.05;;;;;;;20.18;100.00;101864.91;5179606;28;20137;-74
2022/10/27 10:42:58;;;;;;;8.48;1.85;;;;;;;20.17;100.00;101859.63;5179332;28;20084;-74
2022/10/27 10:45:33;;;;;;;6.00;2.00;;;;;;;20.20;100.00;101870.13;5183000;28;20130;-73
2022/10/27 10:48:14;;;;;;;5.80;1.85;;;;;;;20.20;100.00;101864.69;5178171;28;20061;-73
2022/10/27 10:50:49;;;;;;;7.28;2.00;;;;;;;20.14;100.00;101862.78;5187961;28;20435;-73
2022/10/27 10:53:24;;;;;;;11.07;1.73;;;;;;;20.13;100.00;101858.34;5185133;28;20022;-73
2022/10/27 10:56:00;;;;;;;14.02;2.47;;;;;;;20.09;100.00;101854.38;5187443;28;20041;-73
2022/10/27 10:58:34;;;;;;;10.40;2.42;;;;;;;20.11;100.00;101855.84;5182628;28;20061;-73
2022/10/27 11:01:06;;;;;;;9.35;2.50;;;;;;;20.05;100.00;101850.38;5180690;28;20014;-73
2022/10/27 11:03:43;;;;;;;9.20;2.22;;;;;;;20.02;100.00;101848.91;5194900;28;20477;-73
2022/10/27 11:06:18;;;;;;;7.03;2.33;;;;;;;20.01;100.00;101847.22;5195904;28;20109;-73
2022/10/27 11:09:00;;;;;;;9.98;2.30;;;;;;;20.00;100.00;101842.84;5183149;28;20065;-73
2022/10/27 11:11:44;;;;;;;6.22;2.00;;;;;;;19.99;100.00;101852.06;5190793;28;20047;-73
2022/10/27 11:14:18;;;;;;;9.50;2.15;;;;;;;20.02;100.00;101848.91;5187612;28;20536;-73
2022/10/27 11:16:54;;;;;;;6.90;2.42;;;;;;;20.07;100.00;101843.69;5188741;28;20124;-73
2022/10/27 11:19:37;;;;;;;6.60;2.58;;;;;;;20.12;100.00;101837.63;5182380;28;20014;-73
2022/10/27 11:22:19;;;;;;;6.10;2.40;;;;;;;20.22;100.00;101831.78;5183685;28;20022;-73
2022/10/27 11:25:03;;;;;;;9.68;2.17;;;;;;;20.30;100.00;101831.59;5190315;28;20032;-73
2022/10/27 11:27:49;;;;;;;12.13;2.60;;;;;;;20.48;100.00;101828.28;5199903;28;20079;-73
2022/10/27 11:30:24;;;;;;;12.85;2.38;;;;;;;20.58;100.00;101829.56;5202156;28;20017;-73
2022/10/27 11:33:37;;;;;;;14.20;2.78;;;;;;;20.64;100.00;101823.28;5198679;28;20171;-73
2022/10/27 11:36:22;;;;;;;7.38;2.80;;;;;;;20.73;100.00;101823.91;5157509;28;20025;-73
2022/10/27 11:39:02;;;;;;;6.57;2.38;;;;;;;20.81;100.00;101823.69;5181167;28;20297;-73
2022/10/27 11:41:43;;;;;;;11.00;2.10;;;;;;;20.93;100.00;101821.16;5183799;28;20037;-73
2022/10/27 11:44:32;;;;;;;8.25;2.75;;;;;;;21.05;100.00;101818.66;5185869;28;20517;-74
2022/10/27 11:47:08;;;;;;;9.65;2.10;;;;;;;21.17;100.00;101809.59;5185478;28;20041;-73
2022/10/27 11:49:51;;;;;;;11.38;2.75;;;;;;;21.30;100.00;101797.84;5191077;28;20392;-73
2022/10/27 11:52:44;;;;;;;7.05;2.42;;;;;;;21.35;100.00;101800.75;5191465;28;20025;-74